Time;durP1;ratioP1;P1;durP2;ratioP2;P2;SDS_P1;SDS_P2;PMS_P1;PMS_P2;Temp;Humidity;BMP_temperature;BMP_pressure;BME280_temperature;BME280_humidity;BME280_pressure;Samples;Min_cycle;Max_cycle;Signal;HPM_P1;HPM_P2
2021/03/07 00:01:10;;;;;;;7.33;3.90;;;;;;;15.48;32.71;155188.77;1801190;79;21354;-66
2021/03/07 00:03:43;;;;;;;8.70;4.45;;;;;;;15.50;32.75;155194.03;1801336;78;21815;-66
2021/03/07 00:06:15;;;;;;;9.35;4.00;;;;;;;15.53;32.77;155200.61;1801526;79;21214;-66
2021/03/07 00:08:47;;;;;;;10.65;4.65;;;;;;;15.51;32.72;155196.63;1801137;79;21345;-66
2021/03/07 00:11:21;;;;;;;8.05;4.20;;;;;;;15.45;32.80;155179.50;1801273;79;21164;-66
2021/03/07 00:13:54;;;;;;;8.33;4.97;;;;;;;15.36;32.97;155155.81;1801492;78;21328;-66
2021/03/07 00:16:28;;;;;;;9.05;4.33;;;;;;;15.38;32.97;155159.80;1801644;79;21770;-66
2021/03/07 00:19:01;;;;;;;8.60;4.40;;;;;;;15.34;32.98;155150.55;1770103;81;21307;-66
2021/03/07 00:21:34;;;;;;;11.73;4.55;;;;;;;15.42;32.92;155172.94;1786486;79;21216;-66
2021/03/07 00:24:07;;;;;;;9.20;3.92;;;;;;;15.32;33.06;155143.97;1756963;81;21354;-66
2021/03/07 00:26:39;;;;;;;8.73;5.12;;;;;;;15.30;33.08;155138.70;1786535;80;21691;-66
2021/03/07 00:29:12;;;;;;;8.85;4.53;;;;;;;15.23;33.18;155121.53;1773702;80;21281;-66
2021/03/07 00:31:44;;;;;;;7.67;3.90;;;;;;;15.29;33.16;155137.41;1792136;78;21802;-66
2021/03/07 00:34:16;;;;;;;8.43;4.37;;;;;;;15.37;33.14;155157.16;1801883;79;21182;-66
2021/03/07 00:36:49;;;;;;;9.30;4.25;;;;;;;15.19;33.33;155111.03;1801675;79;21311;-66
2021/03/07 00:39:21;;;;;;;8.48;3.80;;;;;;;15.25;33.36;155125.56;1801631;79;21318;-66
2021/03/07 00:41:53;;;;;;;7.67;4.10;;;;;;;15.33;33.27;155146.62;1801887;79;21303;-66
2021/03/07 00:44:26;;;;;;;10.25;4.42;;;;;;;15.37;33.26;155157.16;1801790;79;21335;-65
2021/03/07 00:46:58;;;;;;;6.55;3.85;;;;;;;15.42;33.19;155172.94;1801739;79;21216;-65
2021/03/07 00:49:33;;;;;;;5.70;3.10;;;;;;;15.43;33.19;155175.58;1807760;78;21526;-65
2021/03/07 00:52:06;;;;;;;9.55;4.12;;;;;;;15.45;33.25;155179.50;1819424;78;21333;-66
2021/03/07 00:54:38;;;;;;;7.97;3.95;;;;;;;15.52;33.23;155199.27;1818850;79;21231;-64
2021/03/07 00:57:10;;;;;;;6.67;3.37;;;;;;;15.46;33.28;155183.50;1819300;79;21171;-64
2021/03/07 00:59:43;;;;;;;6.87;3.60;;;;;;;15.46;33.26;155182.14;1819117;78;21222;-65
2021/03/07 01:02:15;;;;;;;6.42;3.17;;;;;;;15.35;33.24;155153.19;1822709;78;21171;-64
2021/03/07 01:04:48;;;;;;;7.40;3.77;;;;;;;15.07;33.72;155078.11;1821304;78;21210;-64
2021/03/07 01:07:32;;;;;;;5.65;3.55;;;;;;;15.19;33.78;155109.70;1823197;78;21158;-65
2021/03/07 01:10:22;;;;;;;7.00;2.92;;;;;;;15.35;33.70;155153.19;1819674;78;21929;-66
2021/03/07 01:12:54;;;;;;;7.90;3.72;;;;;;;15.44;33.61;155178.22;1820695;78;21297;-66
2021/03/07 01:15:29;;;;;;;6.05;3.08;;;;;;;15.08;33.95;155080.75;1822018;78;21337;-66
2021/03/07 01:18:02;;;;;;;6.20;3.55;;;;;;;15.07;34.02;155079.45;1823584;78;21191;-66
2021/03/07 01:20:37;;;;;;;6.20;3.58;;;;;;;15.11;33.98;155089.94;1821148;78;21702;-66
2021/03/07 01:23:09;;;;;;;6.90;3.52;;;;;;;15.15;33.95;155100.50;1818725;78;21358;-66
2021/03/07 01:25:43;;;;;;;8.25;3.83;;;;;;;15.18;33.97;155107.06;1818343;78;21166;-66
2021/03/07 01:28:16;;;;;;;6.92;4.00;;;;;;;15.19;33.96;155111.03;1822750;78;21345;-65
2021/03/07 01:30:49;;;;;;;5.62;3.40;;;;;;;15.25;33.91;155125.56;1816447;78;21350;-65
2021/03/07 01:33:22;;;;;;;7.78;3.67;;;;;;;15.34;33.83;155149.25;1821983;78;21298;-65
2021/03/07 01:35:55;;;;;;;6.70;3.35;;;;;;;15.22;33.93;155118.91;1817697;78;21694;-66
2021/03/07 01:38:27;;;;;;;6.28;3.42;;;;;;;15.20;34.00;155113.69;1823817;78;21211;-65
2021/03/07 01:41:01;;;;;;;7.12;3.47;;;;;;;15.30;33.88;155138.70;1823507;78;21742;-66
2021/03/07 01:43:33;;;;;;;5.70;3.10;;;;;;;15.32;33.79;155145.33;1823691;78;21178;-66
2021/03/07 01:46:07;;;;;;;7.10;3.58;;;;;;;15.36;33.85;155154.53;1823467;78;21207;-65
2021/03/07 01:48:40;;;;;;;5.75;4.17;;;;;;;15.37;33.78;155157.16;1821300;78;22193;-65
2021/03/07 01:51:13;;;;;;;7.60;3.37;;;;;;;15.45;33.72;155179.50;1822146;78;22342;-65
2021/03/07 01:53:46;;;;;;;6.25;3.42;;;;;;;15.42;33.75;155172.94;1824200;78;21200;-65
2021/03/07 01:56:19;;;;;;;8.93;3.85;;;;;;;15.42;33.72;155171.66;1799946;78;21354;-65
2021/03/07 01:58:51;;;;;;;6.30;3.40;;;;;;;15.43;33.74;155175.58;1824454;78;21208;-65
2021/03/07 02:01:24;;;;;;;8.10;4.12;;;;;;;15.45;33.71;155180.84;1824209;78;21725;-65
2021/03/07 02:03:57;;;;;;;7.60;3.27;;;;;;;15.40;33.75;155167.66;1824188;78;21325;-65
2021/03/07 02:06:30;;;;;;;6.90;3.35;;;;;;;15.38;33.81;155162.44;1824211;78;21183;-65
2021/03/07 02:09:02;;;;;;;6.58;3.42;;;;;;;15.36;33.80;155154.53;1824502;78;21445;-65
2021/03/07 02:11:37;;;;;;;6.62;3.50;;;;;;;15.41;33.70;155170.30;1824378;78;21258;-65
2021/03/07 02:14:09;;;;;;;8.23;3.80;;;;;;;15.34;33.75;155150.55;1824401;78;21247;-65
2021/03/07 02:16:41;;;;;;;5.00;3.15;;;;;;;15.36;33.67;155154.53;1824368;78;21643;-65
2021/03/07 02:19:15;;;;;;;4.80;3.10;;;;;;;15.45;33.61;155179.50;1824563;78;21237;-64
2021/03/07 02:21:50;;;;;;;7.10;3.30;;;;;;;15.54;33.54;155204.53;1821476;78;21312;-65
2021/03/07 02:24:22;;;;;;;7.33;2.98;;;;;;;15.56;33.49;155209.81;1824253;78;21224;-65
2021/03/07 02:26:55;;;;;;;5.60;3.50;;;;;;;15.54;33.42;155204.53;1824418;78;21186;-64
2021/03/07 02:29:27;;;;;;;7.97;3.70;;;;;;;15.54;33.46;155203.25;1824560;78;21169;-65
2021/03/07 02:32:07;;;;;;;7.97;3.15;;;;;;;15.54;33.46;155203.25;1824377;78;21173;-65
2021/03/07 02:34:49;;;;;;;5.08;3.20;;;;;;;15.58;33.44;155213.75;1824342;78;21182;-64
2021/03/07 02:37:23;;;;;;;9.23;3.70;;;;;;;15.80;33.18;155271.69;1824367;78;21177;-64
2021/03/07 02:39:55;;;;;;;6.90;3.47;;;;;;;15.58;33.26;155213.75;1823864;78;21351;-65
2021/03/07 02:42:29;;;;;;;6.95;3.50;;;;;;;15.82;33.16;155276.95;1824133;78;21216;-65
2021/03/07 02:45:08;;;;;;;6.97;3.50;;;;;;;15.91;33.00;155300.70;1824309;78;21653;-65
2021/03/07 02:47:41;;;;;;;8.65;3.58;;;;;;;15.76;33.00;155261.19;1824253;78;21192;-65
2021/03/07 02:50:18;;;;;;;7.97;3.77;;;;;;;15.52;33.30;155199.27;1772171;78;21177;-65
2021/03/07 02:52:58;;;;;;;6.65;3.40;;;;;;;15.90;32.98;155299.36;1792605;79;21340;-65
2021/03/07 02:55:33;;;;;;;7.53;4.08;;;;;;;15.95;32.96;155312.56;1813608;79;21308;-65
2021/03/07 02:58:10;;;;;;;9.55;4.15;;;;;;;15.92;32.93;155303.28;1802017;79;21226;-65
2021/03/07 03:00:52;;;;;;;11.03;4.12;;;;;;;15.93;32.87;155307.27;1801958;79;21183;-65
2021/03/07 03:03:39;;;;;;;9.25;3.92;;;;;;;15.93;32.83;155307.27;1802204;79;21218;-65
2021/03/07 03:06:12;;;;;;;7.42;3.02;;;;;;;15.95;32.88;155312.56;1762448;79;21194;-65
2021/03/07 03:08:49;;;;;;;6.55;4.05;;;;;;;15.89;33.02;155296.72;1801952;79;21183;-66
2021/03/07 03:11:24;;;;;;;5.37;3.20;;;;;;;15.54;33.32;155204.53;1815403;79;21178;-65
2021/03/07 03:13:57;;;;;;;8.03;4.85;;;;;;;15.40;33.50;155167.66;1815123;78;21158;-65
2021/03/07 03:16:32;;;;;;;6.53;3.80;;;;;;;15.78;33.17;155266.45;1815380;79;21381;-65
2021/03/07 03:19:08;;;;;;;7.12;3.67;;;;;;;15.87;33.09;155290.16;1815190;79;21401;-66
2021/03/07 03:21:42;;;;;;;8.38;3.98;;;;;;;15.86;33.08;155288.81;1814300;79;21257;-65
2021/03/07 03:24:14;;;;;;;7.45;4.20;;;;;;;15.79;33.20;155269.09;1818665;78;21664;-65
2021/03/07 03:26:47;;;;;;;6.08;4.10;;;;;;;15.48;33.43;155187.42;1806166;79;21330;-65
2021/03/07 03:29:20;;;;;;;6.97;3.67;;;;;;;15.78;33.20;155266.45;1794919;79;21211;-66
2021/03/07 03:31:52;;;;;;;6.47;3.62;;;;;;;15.91;33.00;155300.70;1788535;80;21172;-66
2021/03/07 03:34:25;;;;;;;6.50;4.08;;;;;;;15.94;32.91;155309.91;1799600;80;21349;-66
2021/03/07 03:36:58;;;;;;;7.53;3.77;;;;;;;15.88;32.91;155294.08;1799463;80;21408;-66
2021/03/07 03:39:30;;;;;;;7.72;3.98;;;;;;;15.92;32.84;155304.64;1799332;80;21404;-66
2021/03/07 03:42:06;;;;;;;9.05;3.27;;;;;;;16.18;32.48;155373.14;1814745;79;21172;-66
2021/03/07 03:44:40;;;;;;;6.75;3.65;;;;;;;16.23;32.48;155385.00;1815237;79;21295;-66
2021/03/07 03:47:13;;;;;;;6.28;3.50;;;;;;;16.17;32.49;155369.16;1815300;79;21254;-66
2021/03/07 03:49:55;;;;;;;4.62;3.02;;;;;;;16.11;32.46;155353.38;1815119;79;21390;-66
2021/03/07 03:52:30;;;;;;;;;;;;;;;16.10;32.45;155350.73;1817430;79;21314;-66
2021/03/07 03:55:26;;;;;;;9.63;3.92;;;;;;;15.97;32.51;155317.78;1802041;79;20624;-66
2021/03/07 03:58:05;;;;;;;7.35;3.42;;;;;;;15.48;33.03;155187.42;1802010;78;21388;-66
2021/03/07 04:00:40;;;;;;;7.75;3.75;;;;;;;15.48;33.04;155187.42;1802006;79;21718;-66
2021/03/07 04:03:17;;;;;;;8.33;3.87;;;;;;;15.51;33.00;155196.63;1770444;81;21347;-66
2021/03/07 04:05:51;;;;;;;4.92;3.10;;;;;;;15.49;33.05;155190.06;1770529;81;21873;-66
2021/03/07 04:08:25;;;;;;;8.70;3.17;;;;;;;15.53;32.98;155200.61;1770360;81;21861;-66
2021/03/07 04:10:57;;;;;;;5.78;3.15;;;;;;;15.51;33.00;155195.33;1819219;78;21197;-66
2021/03/07 04:13:30;;;;;;;7.55;3.50;;;;;;;15.50;33.04;155194.03;1818755;79;21315;-67
2021/03/07 04:16:03;;;;;;;6.87;3.83;;;;;;;15.79;32.73;155270.39;1818685;79;21510;-66
2021/03/07 04:18:35;;;;;;;8.80;3.15;;;;;;;15.99;32.50;155323.06;1818646;78;21202;-66
2021/03/07 04:21:08;;;;;;;5.87;3.45;;;;;;;16.03;32.40;155332.31;1818793;79;21827;-66
2021/03/07 04:23:40;;;;;;;7.55;3.58;;;;;;;15.90;32.59;155299.36;1818616;77;21189;-66
2021/03/07 04:26:13;;;;;;;8.55;4.33;;;;;;;16.00;32.46;155325.69;1820516;77;21217;-66
2021/03/07 04:28:45;;;;;;;5.22;3.40;;;;;;;16.02;32.45;155330.97;1812793;79;21395;-66
2021/03/07 04:31:18;;;;;;;7.25;3.98;;;;;;;16.03;32.47;155333.61;1814780;79;21208;-66
2021/03/07 04:33:50;;;;;;;5.95;3.47;;;;;;;16.09;32.39;155349.39;1818904;79;21166;-66
2021/03/07 04:36:23;;;;;;;9.30;4.67;;;;;;;16.13;32.42;155359.95;1818738;78;21169;-66
2021/03/07 04:38:56;;;;;;;8.95;4.05;;;;;;;16.13;32.41;155358.66;1818917;79;21672;-66
2021/03/07 04:41:29;;;;;;;8.40;4.37;;;;;;;16.16;32.42;155367.88;1818698;79;21190;-67
2021/03/07 04:44:01;;;;;;;10.85;5.05;;;;;;;16.19;32.49;155375.78;1818744;79;21177;-66
2021/03/07 04:46:34;;;;;;;7.55;4.37;;;;;;;16.20;32.38;155377.08;1818709;79;21154;-66
2021/03/07 04:49:07;;;;;;;10.68;4.25;;;;;;;16.24;32.33;155388.94;1818703;79;21834;-66
2021/03/07 04:51:41;;;;;;;10.35;4.50;;;;;;;16.30;32.32;155404.81;1818245;79;21170;-66
2021/03/07 04:54:13;;;;;;;7.33;3.95;;;;;;;16.33;32.31;155412.69;1817293;79;21305;-66
2021/03/07 04:56:45;;;;;;;9.98;4.92;;;;;;;16.41;32.25;155433.81;1813295;79;21316;-66
2021/03/07 04:59:18;;;;;;;9.05;5.08;;;;;;;16.54;32.11;155468.06;1813173;79;21331;-66
2021/03/07 05:01:51;;;;;;;7.92;4.35;;;;;;;16.57;32.09;155477.28;1813362;79;21343;-66
2021/03/07 05:04:23;;;;;;;11.03;5.28;;;;;;;16.62;32.12;155489.14;1813199;79;21203;-66
2021/03/07 05:06:56;;;;;;;7.35;4.35;;;;;;;16.69;32.11;155507.56;1812897;79;21169;-66
2021/03/07 05:09:28;;;;;;;8.90;4.17;;;;;;;16.82;31.98;155541.84;1810468;79;21308;-67
2021/03/07 05:12:01;;;;;;;8.08;4.25;;;;;;;16.82;32.01;155541.84;1786439;80;21173;-66
2021/03/07 05:14:33;;;;;;;11.10;5.05;;;;;;;16.78;32.12;155531.33;1805887;79;21747;-66
2021/03/07 05:17:06;;;;;;;10.25;5.40;;;;;;;16.79;32.14;155535.27;1806062;79;21314;-66
2021/03/07 05:19:39;;;;;;;9.55;4.90;;;;;;;16.66;32.34;155501.00;1806006;79;21392;-67
2021/03/07 05:22:11;;;;;;;7.90;4.78;;;;;;;16.71;32.35;155512.84;1815299;79;21310;-66
2021/03/07 05:24:43;;;;;;;12.30;5.20;;;;;;;16.85;32.27;155551.06;1815213;79;21342;-66
2021/03/07 05:27:16;;;;;;;10.70;5.33;;;;;;;16.86;32.27;155552.41;1787965;79;21387;-66
2021/03/07 05:29:48;;;;;;;9.48;4.78;;;;;;;16.87;32.36;155556.34;1813125;79;21300;-66
2021/03/07 05:32:21;;;;;;;9.45;4.90;;;;;;;16.89;32.39;155561.63;1801676;78;21326;-66
2021/03/07 05:34:53;;;;;;;12.43;5.60;;;;;;;16.83;32.37;155545.83;1801759;78;21343;-66
2021/03/07 05:37:26;;;;;;;12.15;5.28;;;;;;;16.86;32.36;155553.70;1801737;79;21184;-66
2021/03/07 05:39:58;;;;;;;9.93;5.42;;;;;;;16.71;32.54;155512.84;1801635;79;21203;-66
2021/03/07 05:42:31;;;;;;;10.03;4.90;;;;;;;16.91;32.50;155566.91;1802476;79;21393;-66
2021/03/07 05:45:03;;;;;;;9.90;5.08;;;;;;;16.86;32.52;155553.70;1801687;79;21318;-66
2021/03/07 05:47:36;;;;;;;9.35;5.55;;;;;;;16.72;32.79;155515.48;1801864;78;21695;-66
2021/03/07 05:50:10;;;;;;;9.43;5.78;;;;;;;16.91;32.65;155565.56;1801782;79;21306;-66
2021/03/07 05:52:42;;;;;;;10.45;5.28;;;;;;;16.78;32.71;155532.62;1801639;78;21339;-65
2021/03/07 05:55:15;;;;;;;10.08;5.90;;;;;;;16.76;32.75;155527.34;1803352;79;21325;-65
2021/03/07 05:57:49;;;;;;;10.70;5.42;;;;;;;16.81;32.86;155540.55;1810018;79;21187;-65
2021/03/07 06:00:22;;;;;;;11.20;4.87;;;;;;;16.71;32.99;155512.84;1811611;79;22385;-66
2021/03/07 06:02:54;;;;;;;7.62;4.87;;;;;;;16.69;33.04;155507.56;1813870;79;21334;-65
2021/03/07 06:05:28;;;;;;;10.20;5.92;;;;;;;16.80;32.92;155536.56;1808205;79;21694;-65
2021/03/07 06:08:00;;;;;;;13.68;5.83;;;;;;;17.21;32.70;155647.34;1807723;79;21207;-65
2021/03/07 06:10:34;;;;;;;10.78;6.00;;;;;;;17.30;32.26;155669.81;1809847;79;21262;-65
2021/03/07 06:13:12;;;;;;;13.50;7.67;;;;;;;17.46;32.23;155711.98;1810316;79;21219;-65
2021/03/07 06:15:49;;;;;;;13.15;6.22;;;;;;;17.43;32.22;155705.41;1811068;79;21393;-65
2021/03/07 06:18:23;;;;;;;16.75;7.05;;;;;;;17.56;32.24;155739.70;1814777;79;21274;-66
2021/03/07 06:20:56;;;;;;;14.55;6.62;;;;;;;17.80;32.14;155801.67;1814476;79;21302;-66
2021/03/07 06:23:37;;;;;;;14.30;6.35;;;;;;;17.91;32.07;155830.70;1811892;79;21377;-65
2021/03/07 06:26:13;;;;;;;11.45;6.42;;;;;;;17.97;31.81;155847.84;1813172;79;21373;-66
2021/03/07 06:28:47;;;;;;;13.38;6.00;;;;;;;18.11;31.61;155883.52;1813437;79;21337;-69
2021/03/07 06:31:31;;;;;;;15.08;6.67;;;;;;;18.12;31.70;155888.75;1810379;79;21356;-66
2021/03/07 06:34:04;;;;;;;14.45;7.70;;;;;;;17.92;31.70;155834.69;1805389;79;21310;-66
2021/03/07 06:36:38;;;;;;;12.47;5.97;;;;;;;18.12;31.65;155888.75;1802419;79;21393;-67
2021/03/07 06:39:10;;;;;;;12.95;6.42;;;;;;;18.16;31.44;155898.03;1801410;79;21214;-66
2021/03/07 06:41:44;;;;;;;17.07;6.92;;;;;;;18.17;31.48;155900.63;1820220;78;21201;-66
2021/03/07 06:44:20;;;;;;;13.30;7.30;;;;;;;18.21;31.43;155911.20;1808936;78;21356;-65
2021/03/07 06:46:54;;;;;;;12.13;6.22;;;;;;;18.30;31.36;155935.00;1814859;79;21361;-65
2021/03/07 06:49:30;;;;;;;13.38;6.08;;;;;;;18.39;31.00;155958.78;1781003;79;21168;-65
2021/03/07 06:52:20;;;;;;;13.55;6.15;;;;;;;18.26;31.10;155925.77;1815376;79;21262;-65
2021/03/07 06:55:12;;;;;;;12.55;6.47;;;;;;;18.25;31.20;155921.83;1813574;79;21274;-65
2021/03/07 06:58:18;;;;;;;12.40;6.85;;;;;;;18.40;31.10;155962.73;1802486;79;21209;-66
2021/03/07 07:00:50;;;;;;;10.38;5.85;;;;;;;18.64;31.01;156026.09;1809903;79;21258;-66
2021/03/07 07:03:24;;;;;;;10.03;5.58;;;;;;;18.45;30.69;155975.95;1809524;79;21194;-66
2021/03/07 07:05:57;;;;;;;12.88;6.67;;;;;;;18.50;30.57;155989.13;1802638;79;21683;-66
2021/03/07 07:08:47;;;;;;;12.63;6.60;;;;;;;18.68;30.61;156035.33;1804280;79;21207;-66
2021/03/07 07:11:19;;;;;;;11.28;6.90;;;;;;;18.76;30.48;156056.44;1807880;79;21808;-66
2021/03/07 07:13:54;;;;;;;11.33;6.15;;;;;;;18.84;30.47;156077.59;1808914;79;21857;-67
2021/03/07 07:16:29;;;;;;;10.43;6.50;;;;;;;19.12;30.32;156154.22;1806658;79;21333;-65
2021/03/07 07:19:04;;;;;;;11.53;5.80;;;;;;;19.22;30.04;156179.33;1778757;79;21310;-65
2021/03/07 07:21:36;;;;;;;12.70;6.33;;;;;;;19.33;30.13;156208.39;1809597;79;21627;-65
2021/03/07 07:24:09;;;;;;;16.02;7.83;;;;;;;19.75;29.85;156320.69;1809310;78;21314;-66
2021/03/07 07:26:41;;;;;;;13.35;6.65;;;;;;;19.86;29.60;156348.42;1799850;78;21410;-65
2021/03/07 07:29:14;;;;;;;14.03;6.30;;;;;;;19.85;29.66;156347.12;1763401;81;21226;-66
2021/03/07 07:31:53;;;;;;;16.40;6.87;;;;;;;19.90;29.33;156359.00;1786952;79;21146;-66
2021/03/07 07:34:34;;;;;;;12.18;6.55;;;;;;;19.73;29.28;156314.11;1812162;78;21340;-66
2021/03/07 07:37:14;;;;;;;11.50;6.47;;;;;;;19.82;29.38;156337.87;1806280;79;21172;-66
2021/03/07 07:39:51;;;;;;;8.93;5.87;;;;;;;19.94;29.29;156370.91;1791576;78;21292;-66
2021/03/07 07:42:29;;;;;;;12.55;7.00;;;;;;;19.69;29.22;156303.52;1815302;78;21336;-66
2021/03/07 07:46:00;;;;;;;10.50;5.95;;;;;;;19.99;29.17;156384.19;1809334;79;21343;-66
2021/03/07 07:48:37;;;;;;;13.22;6.87;;;;;;;19.97;29.07;156377.55;1700349;82;21283;-67
2021/03/07 07:51:36;;;;;;;13.22;6.35;;;;;;;20.35;29.08;156479.38;1694791;83;21385;-64
2021/03/07 07:54:09;;;;;;;12.93;6.83;;;;;;;20.41;28.64;156495.22;1743235;80;21877;-66
2021/03/07 07:56:46;;;;;;;16.42;6.53;;;;;;;20.63;28.61;156554.75;1770281;79;21839;-65
2021/03/07 07:59:20;;;;;;;10.30;6.10;;;;;;;20.66;28.37;156561.34;1794970;79;21150;-66
2021/03/07 08:01:58;;;;;;;11.40;6.03;;;;;;;20.79;28.26;156595.78;1748459;78;21355;-65
2021/03/07 08:04:35;;;;;;;13.10;6.10;;;;;;;19.69;29.15;156304.81;1786477;79;21244;-66
2021/03/07 08:07:08;;;;;;;12.15;6.50;;;;;;;19.46;29.47;156244.03;1790237;79;21214;-66
2021/03/07 08:09:45;;;;;;;11.78;6.10;;;;;;;19.90;29.35;156359.00;1803489;79;21227;-65
2021/03/07 08:12:48;;;;;;;12.98;6.45;;;;;;;20.18;29.26;156434.41;1796552;79;21333;-66
2021/03/07 08:15:34;;;;;;;12.78;6.50;;;;;;;20.37;28.98;156485.97;1798681;79;21373;-65
2021/03/07 08:18:06;;;;;;;13.40;6.45;;;;;;;20.31;28.95;156468.78;1801419;79;21354;-65
2021/03/07 08:20:48;;;;;;;12.07;6.62;;;;;;;20.17;28.93;156431.75;1801315;78;21314;-65
2021/03/07 08:23:25;;;;;;;11.30;6.53;;;;;;;20.66;28.78;156562.63;1799524;79;21254;-65
2021/03/07 08:25:58;;;;;;;13.35;6.55;;;;;;;21.00;28.23;156653.97;1799847;79;21358;-65
2021/03/07 08:28:38;;;;;;;12.00;5.83;;;;;;;20.07;28.85;156406.67;1798269;79;21944;-65
2021/03/07 08:31:21;;;;;;;12.70;6.03;;;;;;;19.71;29.43;156310.11;1798254;79;21358;-65
2021/03/07 08:33:55;;;;;;;9.50;5.30;;;;;;;20.47;28.82;156512.41;1805101;79;21179;-67
2021/03/07 08:36:28;;;;;;;11.83;5.87;;;;;;;20.84;28.64;156608.97;1801156;79;21327;-66
2021/03/07 08:39:11;;;;;;;12.45;5.60;;;;;;;20.80;28.38;156599.73;1801829;79;21215;-65
2021/03/07 08:41:49;;;;;;;12.78;5.90;;;;;;;20.72;28.55;156578.53;1807516;79;21693;-66
2021/03/07 08:44:21;;;;;;;11.30;5.87;;;;;;;20.61;28.45;156549.44;1802898;79;21785;-66
2021/03/07 08:46:54;;;;;;;10.10;5.58;;;;;;;20.54;28.57;156529.59;1804054;79;21302;-68
2021/03/07 08:49:31;;;;;;;6.90;3.92;;;;;;;20.60;28.42;156546.78;1802385;79;21476;-67
2021/03/07 08:52:06;;;;;;;10.03;4.97;;;;;;;20.80;28.39;156599.73;1805215;79;21346;-68
2021/03/07 08:54:39;;;;;;;7.50;4.90;;;;;;;20.87;28.28;156618.28;1811422;79;21195;-68
2021/03/07 08:57:12;;;;;;;9.58;5.40;;;;;;;20.95;28.21;156640.72;1811443;79;21195;-68
2021/03/07 08:59:45;;;;;;;8.90;4.10;;;;;;;20.98;28.21;156648.67;1808907;79;21317;-68
2021/03/07 09:02:17;;;;;;;7.12;4.08;;;;;;;21.11;27.83;156683.08;1811193;78;21302;-66
2021/03/07 09:04:50;;;;;;;8.63;4.70;;;;;;;21.25;27.82;156720.12;1805655;79;21251;-67
2021/03/07 09:07:31;;;;;;;8.73;4.05;;;;;;;20.81;28.11;156601.08;1792208;78;21294;-69
2021/03/07 09:10:05;;;;;;;6.25;4.17;;;;;;;21.00;27.90;156653.97;1787461;78;21401;-66
2021/03/07 09:12:39;;;;;;;11.25;4.37;;;;;;;20.93;28.08;156634.12;1783034;78;21844;-68
2021/03/07 09:15:14;;;;;;;7.75;4.53;;;;;;;20.89;28.27;156622.22;1784215;78;21351;-68
2021/03/07 09:17:48;;;;;;;13.18;5.17;;;;;;;20.96;28.17;156642.08;1785521;78;21371;-69
2021/03/07 09:20:20;;;;;;;7.00;4.70;;;;;;;20.99;28.03;156651.31;1784974;78;21363;-70
2021/03/07 09:22:52;;;;;;;10.95;4.40;;;;;;;21.19;28.08;156704.22;1783963;78;21213;-71
2021/03/07 09:25:25;;;;;;;7.03;4.20;;;;;;;21.30;27.90;156733.33;1789846;78;21363;-66
2021/03/07 09:27:57;;;;;;;10.03;5.20;;;;;;;21.34;27.90;156742.64;1786067;78;21396;-67
2021/03/07 09:30:30;;;;;;;8.58;4.62;;;;;;;21.03;28.09;156661.92;1785762;78;21324;-69
2021/03/07 09:33:07;;;;;;;14.05;5.90;;;;;;;21.14;28.01;156691.03;1784786;79;21323;-68
2021/03/07 09:35:40;;;;;;;12.00;5.70;;;;;;;21.14;28.18;156689.67;1786107;78;21206;-69
2021/03/07 09:38:27;;;;;;;7.80;4.67;;;;;;;20.96;28.50;156643.37;1788736;78;21298;-70
2021/03/07 09:41:13;;;;;;;;;;;;;;;20.58;28.71;156540.19;1787903;78;21982;-68
2021/03/07 09:43:47;;;;;;;9.65;5.22;;;;;;;20.69;28.68;156569.28;1788685;78;20310;-68
2021/03/07 09:46:19;;;;;;;9.83;4.80;;;;;;;20.89;28.61;156622.22;1785179;78;21280;-68
2021/03/07 09:49:02;;;;;;;9.18;4.72;;;;;;;20.95;28.59;156640.72;1785532;78;21344;-67
2021/03/07 09:51:39;;;;;;;8.95;5.08;;;;;;;21.04;28.61;156664.58;1783169;78;21289;-66
2021/03/07 09:54:15;;;;;;;10.82;4.97;;;;;;;20.90;28.73;156626.17;1790613;78;21381;-68
2021/03/07 09:56:48;;;;;;;9.60;5.85;;;;;;;20.78;28.82;156593.13;1786666;78;21420;-68
2021/03/07 09:59:30;;;;;;;8.60;4.62;;;;;;;20.80;28.82;156598.42;1761434;78;21378;-70
2021/03/07 10:02:07;;;;;;;7.12;4.33;;;;;;;20.77;28.79;156590.44;1798534;78;22100;-67
2021/03/07 10:04:50;;;;;;;8.63;5.17;;;;;;;20.63;28.87;156554.75;1796650;78;21361;-69
2021/03/07 10:07:26;;;;;;;7.00;4.58;;;;;;;20.53;29.06;156526.94;1796393;77;21897;-71
2021/03/07 10:10:23;;;;;;;8.65;4.12;;;;;;;20.45;29.19;156507.11;1795996;78;21441;-70
2021/03/07 10:13:01;;;;;;;6.70;4.08;;;;;;;20.50;29.18;156520.36;1817480;77;21388;-71
2021/03/07 10:15:46;;;;;;;8.08;4.28;;;;;;;21.30;28.66;156732.03;1815544;78;21345;-69
2021/03/07 10:18:22;;;;;;;7.97;4.58;;;;;;;21.28;28.60;156728.08;1818158;78;21195;-69
2021/03/07 10:21:00;;;;;;;12.80;5.65;;;;;;;20.87;28.84;156618.28;1807034;77;21256;-69
2021/03/07 10:23:44;;;;;;;8.60;4.47;;;;;;;20.95;28.81;156640.72;1808970;78;21698;-70
2021/03/07 10:26:26;;;;;;;8.83;4.83;;;;;;;20.76;28.96;156589.13;1797044;78;21746;-69
2021/03/07 10:29:11;;;;;;;8.18;4.35;;;;;;;20.85;28.87;156611.63;1795210;78;21219;-70
2021/03/07 10:32:19;;;;;;;9.58;3.95;;;;;;;20.92;28.71;156630.17;1808568;78;21811;-72
2021/03/07 10:34:56;;;;;;;7.75;4.35;;;;;;;21.14;28.69;156691.03;1805478;77;21232;-69
2021/03/07 10:37:44;;;;;;;8.08;4.30;;;;;;;21.55;28.38;156798.20;1805609;78;21280;-72
2021/03/07 10:40:18;;;;;;;7.42;4.20;;;;;;;21.54;28.40;156795.56;1806367;78;21374;-70
2021/03/07 10:42:51;;;;;;;7.47;4.37;;;;;;;21.20;28.69;156705.58;1791791;78;21374;-75
2021/03/07 10:45:31;;;;;;;7.60;4.22;;;;;;;21.08;28.71;156675.12;1797302;78;21522;-71
2021/03/07 10:48:12;;;;;;;5.47;3.85;;;;;;;21.04;28.76;156663.22;1798591;78;21368;-70
2021/03/07 10:50:51;;;;;;;10.50;4.60;;;;;;;21.30;28.72;156733.33;1804761;78;21420;-72
2021/03/07 10:53:30;;;;;;;8.18;4.78;;;;;;;21.35;28.43;156745.28;1808000;78;21382;-74
2021/03/07 10:56:06;;;;;;;7.62;3.65;;;;;;;21.51;28.49;156787.59;1798330;78;21225;-71
2021/03/07 10:58:48;;;;;;;9.50;4.55;;;;;;;21.74;28.29;156849.87;1809016;77;21920;-69
2021/03/07 11:01:26;;;;;;;7.80;4.17;;;;;;;21.58;28.27;156806.20;1798026;78;21407;-67
2021/03/07 11:04:01;;;;;;;8.33;4.45;;;;;;;21.63;28.32;156819.41;1797204;79;21222;-69
2021/03/07 11:06:33;;;;;;;11.10;4.33;;;;;;;21.68;28.27;156833.97;1793287;78;21348;-70
2021/03/07 11:09:11;;;;;;;5.45;3.83;;;;;;;21.69;28.18;156836.63;1794914;78;21371;-69
2021/03/07 11:11:44;;;;;;;10.25;4.90;;;;;;;21.72;28.23;156844.58;1796738;78;21200;-70
2021/03/07 11:14:16;;;;;;;8.68;4.05;;;;;;;21.67;28.20;156830.02;1791754;78;21388;-69
2021/03/07 11:17:11;;;;;;;10.25;4.20;;;;;;;21.62;28.21;156818.11;1791304;78;21185;-71
2021/03/07 11:19:54;;;;;;;6.40;4.75;;;;;;;21.74;28.18;156849.87;1787496;78;21356;-68
2021/03/07 11:22:50;;;;;;;6.03;3.92;;;;;;;21.77;28.25;156857.78;1799858;78;21288;-74
2021/03/07 11:25:24;;;;;;;7.12;3.85;;;;;;;21.58;28.27;156807.50;1800572;78;21340;-74
2021/03/07 11:28:07;;;;;;;6.33;4.10;;;;;;;21.38;28.43;156753.19;1792585;78;21391;-74
2021/03/07 11:30:49;;;;;;;9.50;3.90;;;;;;;21.43;28.53;156766.44;1784614;78;21281;-74
2021/03/07 11:33:26;;;;;;;6.10;3.98;;;;;;;21.48;28.49;156781.00;1793570;78;21269;-74
2021/03/07 11:36:02;;;;;;;12.23;4.45;;;;;;;21.54;28.48;156795.56;1792297;78;21372;-73
2021/03/07 11:38:36;;;;;;;7.97;4.05;;;;;;;21.60;28.42;156812.81;1794465;78;21402;-74
2021/03/07 11:41:09;;;;;;;7.30;3.85;;;;;;;21.67;28.33;156830.02;1795675;78;21932;-74
2021/03/07 11:43:43;;;;;;;7.75;4.03;;;;;;;21.60;28.41;156811.47;1795589;78;21348;-72
2021/03/07 11:46:17;;;;;;;8.55;3.65;;;;;;;21.59;28.41;156810.16;1795180;79;21318;-76
2021/03/07 11:48:50;;;;;;;8.25;4.20;;;;;;;21.47;28.45;156777.05;1803904;78;21730;-74
2021/03/07 11:55:01;;;;;;;7.15;3.67;;;;;;;21.35;28.69;156746.59;1793625;78;21241;-78
2021/03/07 11:57:39;;;;;;;8.65;4.28;;;;;;;21.19;28.77;156702.92;1791924;79;21355;-75
2021/03/07 12:00:20;;;;;;;7.95;3.83;;;;;;;21.35;28.73;156745.28;1802481;77;21843;-75
2021/03/07 12:02:59;;;;;;;10.30;3.70;;;;;;;21.04;28.92;156664.58;1796445;78;21235;-78
2021/03/07 12:06:01;;;;;;;6.97;4.00;;;;;;;21.18;28.96;156700.28;1799453;78;21501;-74